EFW15AV EGKK-LEIB
Flight info
| Callsign | EFW15AV |
|---|---|
| Flight time | N/A |
| Altitude | 35000 |
| Route | SFD4Z SFD Y47 DRAKE L151 SITET UN859 SOPIL DCT BALAN DCT EVPOK DCT NARAK DCT GAI DCT LOMRA DCT ROCAN/N0458F310 DCT PUMAL DCT XEPLA DCT BCN DCT CORDA CORDA6N |
| Aircraft | A320/M-SDE3FGHIRWY/LB1 |
Departure
| Time | 2026-05-05 19:45 |
|---|---|
| Airport | London Gatwick Airport (EGKK) |
Arrival
| Time | N/A |
|---|---|
| Airport | Ibiza Airport (LEIB) |
| Time | Latitude | Longitude | Altitude | Speed | Heading |
|---|---|---|---|---|---|
| 2026-05-05 19:16 | 51.15524 | -0.16656 | 204 ft | 0 kts | 348° |
| 2026-05-05 19:25 | 51.15508 | -0.16651 | 204 ft | 4 kts | 347° |
| 2026-05-05 19:25 | 51.15485 | -0.16643 | 204 ft | 2 kts | 347° |
| 2026-05-05 19:25 | 51.15464 | -0.16628 | 204 ft | 4 kts | 302° |
| 2026-05-05 19:26 | 51.15459 | -0.16592 | 204 ft | 3 kts | 257° |
| 2026-05-05 19:26 | 51.15464 | -0.16552 | 204 ft | 4 kts | 258° |
| 2026-05-05 19:26 | 51.15466 | -0.16538 | 204 ft | 1 kts | 258° |
| 2026-05-05 19:30 | 51.15464 | -0.16552 | 204 ft | 2 kts | 258° |
| 2026-05-05 19:30 | 51.15458 | -0.16602 | 204 ft | 4 kts | 258° |
| 2026-05-05 19:30 | 51.15455 | -0.16627 | 204 ft | 4 kts | 258° |
| 2026-05-05 19:30 | 51.15447 | -0.16686 | 204 ft | 7 kts | 258° |
| 2026-05-05 19:31 | 51.15453 | -0.16770 | 204 ft | 9 kts | 281° |
| 2026-05-05 19:31 | 51.15448 | -0.16864 | 204 ft | 9 kts | 255° |
| 2026-05-05 19:31 | 51.15428 | -0.16977 | 204 ft | 12 kts | 253° |
| 2026-05-05 19:31 | 51.15407 | -0.17118 | 204 ft | 14 kts | 252° |
| 2026-05-05 19:32 | 51.15372 | -0.17261 | 204 ft | 14 kts | 252° |
| 2026-05-05 19:32 | 51.15311 | -0.17353 | 204 ft | 13 kts | 184° |
| 2026-05-05 19:32 | 51.15233 | -0.17375 | 204 ft | 0 kts | 253° |
| 2026-05-05 19:32 | 51.15232 | -0.17381 | 204 ft | 1 kts | 254° |
| 2026-05-05 19:33 | 51.15232 | -0.17382 | 204 ft | 0 kts | 254° |
| 2026-05-05 19:33 | 51.15232 | -0.17383 | 204 ft | 0 kts | 251° |
| 2026-05-05 19:34 | 51.15231 | -0.17385 | 204 ft | 2 kts | 251° |
| 2026-05-05 19:34 | 51.15226 | -0.17409 | 204 ft | 3 kts | 250° |
| 2026-05-05 19:35 | 51.15205 | -0.17518 | 204 ft | 7 kts | 257° |
| 2026-05-05 19:35 | 51.15194 | -0.17610 | 204 ft | 9 kts | 260° |
| 2026-05-05 19:35 | 51.15186 | -0.17720 | 205 ft | 11 kts | 276° |
| 2026-05-05 19:35 | 51.15221 | -0.17779 | 205 ft | 12 kts | 319° |
| 2026-05-05 19:36 | 51.15230 | -0.17968 | 204 ft | 15 kts | 250° |
| 2026-05-05 19:36 | 51.15205 | -0.18144 | 204 ft | 18 kts | 259° |
| 2026-05-05 19:36 | 51.15181 | -0.18349 | 204 ft | 20 kts | 262° |
| 2026-05-05 19:36 | 51.15153 | -0.18579 | 204 ft | 22 kts | 256° |
| 2026-05-05 19:37 | 51.15115 | -0.18831 | 203 ft | 25 kts | 258° |
| 2026-05-05 19:37 | 51.15081 | -0.19082 | 204 ft | 23 kts | 257° |
| 2026-05-05 19:37 | 51.15005 | -0.19253 | 206 ft | 16 kts | 211° |
| 2026-05-05 19:37 | 51.14946 | -0.19391 | 206 ft | 17 kts | 257° |
| 2026-05-05 19:38 | 51.14922 | -0.19590 | 206 ft | 20 kts | 262° |
| 2026-05-05 19:38 | 51.14886 | -0.19809 | 205 ft | 22 kts | 257° |
| 2026-05-05 19:38 | 51.14857 | -0.20062 | 203 ft | 25 kts | 257° |
| 2026-05-05 19:38 | 51.14820 | -0.20346 | 202 ft | 27 kts | 257° |
| 2026-05-05 19:39 | 51.14778 | -0.20645 | 203 ft | 29 kts | 257° |
| 2026-05-05 19:39 | 51.14734 | -0.20946 | 204 ft | 22 kts | 255° |
| 2026-05-05 19:39 | 51.14705 | -0.21153 | 204 ft | 15 kts | 258° |
| 2026-05-05 19:39 | 51.14697 | -0.21208 | 204 ft | 1 kts | 258° |
| 2026-05-05 19:40 | 51.14696 | -0.21216 | 204 ft | 1 kts | 258° |
| 2026-05-05 19:40 | 51.14696 | -0.21217 | 204 ft | 0 kts | 258° |
| 2026-05-05 19:40 | 51.14695 | -0.21228 | 204 ft | 3 kts | 258° |
| 2026-05-05 19:40 | 51.14683 | -0.21293 | 204 ft | 9 kts | 244° |
| 2026-05-05 19:41 | 51.14614 | -0.21325 | 204 ft | 6 kts | 166° |
| 2026-05-05 19:41 | 51.14613 | -0.21325 | 204 ft | 0 kts | 166° |
| 2026-05-05 19:42 | 51.14606 | -0.21322 | 204 ft | 6 kts | 166° |
| 2026-05-05 19:43 | 51.14543 | -0.21278 | 202 ft | 12 kts | 137° |
| 2026-05-05 19:43 | 51.14523 | -0.21141 | 203 ft | 14 kts | 76° |
| 2026-05-05 19:43 | 51.14529 | -0.21099 | 203 ft | 0 kts | 77° |
| 2026-05-05 19:43 | 51.14529 | -0.21097 | 203 ft | 0 kts | 77° |
| 2026-05-05 19:44 | 51.14560 | -0.20875 | 204 ft | 56 kts | 78° |
| 2026-05-05 19:44 | 51.14693 | -0.19910 | 204 ft | 119 kts | 77° |
| 2026-05-05 19:45 | 51.14901 | -0.18353 | 227 ft | 163 kts | 79° |
| 2026-05-05 19:45 | 51.15125 | -0.16532 | 708 ft | 172 kts | 79° |
| 2026-05-05 19:45 | 51.15369 | -0.14609 | 1239 ft | 183 kts | 78° |
| 2026-05-05 19:45 | 51.15649 | -0.12542 | 1643 ft | 201 kts | 78° |
| 2026-05-05 19:46 | 51.15970 | -0.10263 | 1929 ft | 225 kts | 77° |
| 2026-05-05 19:46 | 51.16147 | -0.07731 | 2565 ft | 233 kts | 101° |
| 2026-05-05 19:46 | 51.15413 | -0.05476 | 3194 ft | 244 kts | 138° |
| 2026-05-05 19:46 | 51.13872 | -0.04142 | 3705 ft | 262 kts | 164° |
| 2026-05-05 19:47 | 51.12065 | -0.03532 | 4532 ft | 270 kts | 172° |
| 2026-05-05 19:47 | 51.10179 | -0.03135 | 4925 ft | 274 kts | 173° |
| 2026-05-05 19:47 | 51.08271 | -0.02666 | 5043 ft | 274 kts | 169° |
| 2026-05-05 19:47 | 51.06432 | -0.02022 | 5067 ft | 274 kts | 167° |
| 2026-05-05 19:48 | 51.05184 | -0.01509 | 5069 ft | 274 kts | 165° |
| 2026-05-05 19:48 | 51.02760 | -0.00415 | 5070 ft | 274 kts | 164° |
| 2026-05-05 19:48 | 51.00934 | 0.00447 | 5070 ft | 274 kts | 163° |
| 2026-05-05 19:48 | 50.99109 | 0.01320 | 5070 ft | 274 kts | 163° |
| 2026-05-05 19:49 | 50.97899 | 0.01900 | 5077 ft | 275 kts | 163° |
| 2026-05-05 19:49 | 50.96035 | 0.02795 | 5820 ft | 277 kts | 163° |
| 2026-05-05 19:49 | 50.94201 | 0.03672 | 6745 ft | 280 kts | 163° |
| 2026-05-05 19:49 | 50.92298 | 0.04569 | 7590 ft | 284 kts | 166° |
| 2026-05-05 19:50 | 50.90356 | 0.04796 | 8333 ft | 288 kts | 190° |
| 2026-05-05 19:50 | 50.88496 | 0.03639 | 9066 ft | 291 kts | 215° |
| 2026-05-05 19:50 | 50.86897 | 0.01626 | 9734 ft | 296 kts | 220° |
| 2026-05-05 19:50 | 50.85336 | -0.00516 | 9948 ft | 297 kts | 221° |
| 2026-05-05 19:51 | 50.83766 | -0.02692 | 10162 ft | 309 kts | 221° |
| 2026-05-05 19:51 | 50.82090 | -0.05016 | 10322 ft | 331 kts | 221° |
| 2026-05-05 19:51 | 50.80300 | -0.07501 | 10463 ft | 352 kts | 221° |
| 2026-05-05 19:51 | 50.78433 | -0.10092 | 10890 ft | 361 kts | 221° |
| 2026-05-05 19:52 | 50.76532 | -0.12728 | 11444 ft | 366 kts | 221° |
| 2026-05-05 19:52 | 50.74609 | -0.15394 | 12003 ft | 369 kts | 221° |
| 2026-05-05 19:52 | 50.72527 | -0.17780 | 12525 ft | 373 kts | 206° |
| 2026-05-05 19:52 | 50.70044 | -0.18969 | 13032 ft | 377 kts | 186° |
| 2026-05-05 19:53 | 50.67420 | -0.18739 | 13528 ft | 381 kts | 167° |
| 2026-05-05 19:53 | 50.64879 | -0.17498 | 14013 ft | 384 kts | 161° |
| 2026-05-05 19:53 | 50.62338 | -0.16131 | 14481 ft | 387 kts | 161° |
| 2026-05-05 19:53 | 50.59777 | -0.14745 | 14933 ft | 390 kts | 161° |
| 2026-05-05 19:54 | 50.57201 | -0.13351 | 15370 ft | 393 kts | 161° |
| 2026-05-05 19:54 | 50.54604 | -0.11946 | 15792 ft | 396 kts | 161° |
| 2026-05-05 19:54 | 50.51987 | -0.10531 | 16206 ft | 399 kts | 161° |
| 2026-05-05 19:54 | 50.49350 | -0.09107 | 16613 ft | 402 kts | 161° |
| 2026-05-05 19:55 | 50.46693 | -0.07672 | 17014 ft | 405 kts | 161° |
| 2026-05-05 19:55 | 50.44017 | -0.06230 | 17405 ft | 408 kts | 161° |
| 2026-05-05 19:55 | 50.41327 | -0.04781 | 17789 ft | 410 kts | 161° |
| 2026-05-05 19:55 | 50.38613 | -0.03320 | 18165 ft | 413 kts | 161° |
| 2026-05-05 19:56 | 50.35885 | -0.01853 | 18532 ft | 416 kts | 161° |
| 2026-05-05 19:56 | 50.33142 | -0.00380 | 18889 ft | 418 kts | 161° |
| 2026-05-05 19:56 | 50.30372 | 0.01106 | 19238 ft | 421 kts | 161° |
| 2026-05-05 19:56 | 50.27631 | 0.02575 | 19579 ft | 424 kts | 161° |
| 2026-05-05 19:57 | 50.24832 | 0.04074 | 19910 ft | 426 kts | 161° |
| 2026-05-05 19:57 | 50.22023 | 0.05576 | 20224 ft | 428 kts | 161° |
| 2026-05-05 19:57 | 50.19191 | 0.07089 | 20522 ft | 431 kts | 161° |
| 2026-05-05 19:57 | 50.16345 | 0.08608 | 20802 ft | 433 kts | 161° |
| 2026-05-05 19:58 | 50.13457 | 0.10024 | 21064 ft | 435 kts | 165° |
| 2026-05-05 19:58 | 50.10523 | 0.11219 | 21320 ft | 437 kts | 166° |
| 2026-05-05 19:58 | 50.07562 | 0.12344 | 21561 ft | 439 kts | 167° |
| 2026-05-05 19:58 | 50.04582 | 0.13430 | 21789 ft | 440 kts | 167° |
| 2026-05-05 19:59 | 50.01593 | 0.14504 | 22011 ft | 442 kts | 167° |
| 2026-05-05 19:59 | 49.98589 | 0.15594 | 22218 ft | 444 kts | 167° |
| 2026-05-05 19:59 | 49.95575 | 0.16704 | 22418 ft | 446 kts | 167° |
| 2026-05-05 19:59 | 49.92558 | 0.17831 | 22613 ft | 447 kts | 167° |
| 2026-05-05 20:00 | 49.89529 | 0.18970 | 22798 ft | 449 kts | 167° |
| 2026-05-05 20:00 | 49.86494 | 0.20106 | 22979 ft | 450 kts | 167° |
| 2026-05-05 20:00 | 49.83443 | 0.21239 | 23147 ft | 451 kts | 167° |
| 2026-05-05 20:00 | 49.80380 | 0.22372 | 23316 ft | 453 kts | 167° |
| 2026-05-05 20:01 | 49.77317 | 0.23506 | 23472 ft | 454 kts | 167° |
| 2026-05-05 20:01 | 49.74237 | 0.24650 | 23622 ft | 455 kts | 167° |
| 2026-05-05 20:01 | 49.71155 | 0.25797 | 23766 ft | 456 kts | 167° |
| 2026-05-05 20:01 | 49.68059 | 0.26947 | 23908 ft | 458 kts | 167° |
| 2026-05-05 20:02 | 49.67054 | 0.27320 | 23952 ft | 458 kts | 167° |
| 2026-05-05 20:02 | 49.61852 | 0.29242 | 24178 ft | 460 kts | 167° |
| 2026-05-05 20:02 | 49.58732 | 0.30390 | 24306 ft | 461 kts | 167° |
| 2026-05-05 20:02 | 49.55611 | 0.31535 | 24435 ft | 462 kts | 167° |
| 2026-05-05 20:03 | 49.52482 | 0.32683 | 24562 ft | 463 kts | 167° |
| 2026-05-05 20:03 | 49.49343 | 0.33835 | 24687 ft | 463 kts | 167° |
| 2026-05-05 20:03 | 49.46203 | 0.34987 | 24813 ft | 464 kts | 167° |
| 2026-05-05 20:03 | 49.43096 | 0.36124 | 24937 ft | 465 kts | 167° |
| 2026-05-05 20:04 | 49.39906 | 0.37290 | 25064 ft | 465 kts | 167° |
| 2026-05-05 20:04 | 49.36797 | 0.38429 | 25187 ft | 466 kts | 167° |
| 2026-05-05 20:04 | 49.33649 | 0.39578 | 25393 ft | 464 kts | 167° |
| 2026-05-05 20:04 | 49.30517 | 0.40715 | 25582 ft | 463 kts | 167° |
| 2026-05-05 20:05 | 49.27370 | 0.41858 | 25707 ft | 464 kts | 167° |
| 2026-05-05 20:05 | 49.24227 | 0.42999 | 25832 ft | 465 kts | 167° |
| 2026-05-05 20:05 | 49.21079 | 0.44143 | 25957 ft | 466 kts | 167° |
| 2026-05-05 20:05 | 49.17914 | 0.45290 | 26083 ft | 468 kts | 167° |
| 2026-05-05 20:06 | 49.14746 | 0.46434 | 26331 ft | 465 kts | 167° |
| 2026-05-05 20:06 | 49.13683 | 0.46817 | 26495 ft | 463 kts | 167° |
| 2026-05-05 20:06 | 49.08473 | 0.48692 | 26776 ft | 463 kts | 167° |
| 2026-05-05 20:06 | 49.05336 | 0.49817 | 26901 ft | 463 kts | 167° |
| 2026-05-05 20:07 | 49.02197 | 0.50942 | 27026 ft | 464 kts | 167° |
| 2026-05-05 20:07 | 48.99049 | 0.52072 | 27152 ft | 465 kts | 167° |
| 2026-05-05 20:07 | 48.95896 | 0.53206 | 27277 ft | 465 kts | 167° |
| 2026-05-05 20:07 | 48.92745 | 0.54343 | 27402 ft | 466 kts | 167° |
| 2026-05-05 20:08 | 48.89587 | 0.55477 | 27527 ft | 467 kts | 167° |
| 2026-05-05 20:08 | 48.86421 | 0.56613 | 27652 ft | 467 kts | 167° |
| 2026-05-05 20:08 | 48.83259 | 0.57746 | 27777 ft | 467 kts | 167° |
| 2026-05-05 20:08 | 48.80085 | 0.58879 | 27903 ft | 468 kts | 167° |
| 2026-05-05 20:09 | 48.76918 | 0.60005 | 28027 ft | 468 kts | 167° |
| 2026-05-05 20:09 | 48.73738 | 0.61133 | 28153 ft | 468 kts | 167° |
| 2026-05-05 20:09 | 48.71641 | 0.61875 | 28235 ft | 469 kts | 167° |
| 2026-05-05 20:09 | 48.67432 | 0.63365 | 28401 ft | 469 kts | 167° |
| 2026-05-05 20:10 | 48.64253 | 0.64493 | 28526 ft | 469 kts | 167° |
| 2026-05-05 20:10 | 48.61074 | 0.65623 | 28651 ft | 469 kts | 167° |
| 2026-05-05 20:10 | 48.57898 | 0.66749 | 28776 ft | 469 kts | 167° |
| 2026-05-05 20:10 | 48.54716 | 0.67872 | 28902 ft | 469 kts | 167° |
| 2026-05-05 20:11 | 48.51527 | 0.68997 | 29028 ft | 469 kts | 167° |
| 2026-05-05 20:11 | 48.48348 | 0.70114 | 29153 ft | 469 kts | 167° |
| 2026-05-05 20:11 | 48.45166 | 0.71231 | 29278 ft | 469 kts | 167° |
| 2026-05-05 20:11 | 48.41988 | 0.72350 | 29403 ft | 469 kts | 167° |
| 2026-05-05 20:12 | 48.38805 | 0.73468 | 29529 ft | 469 kts | 167° |
| 2026-05-05 20:12 | 48.35632 | 0.74576 | 29655 ft | 469 kts | 167° |
| 2026-05-05 20:12 | 48.32448 | 0.75688 | 29780 ft | 469 kts | 167° |
| 2026-05-05 20:12 | 48.29268 | 0.76800 | 29905 ft | 469 kts | 167° |
| 2026-05-05 20:13 | 48.26089 | 0.77911 | 30031 ft | 469 kts | 167° |
| 2026-05-05 20:13 | 48.19733 | 0.80122 | 30281 ft | 469 kts | 167° |
| 2026-05-05 20:14 | 48.13376 | 0.82329 | 30532 ft | 468 kts | 167° |
| 2026-05-05 20:14 | 48.10206 | 0.83430 | 30658 ft | 468 kts | 167° |
| 2026-05-05 20:14 | 48.07032 | 0.84530 | 30783 ft | 468 kts | 167° |
| 2026-05-05 20:14 | 48.03865 | 0.85628 | 30908 ft | 468 kts | 167° |
| 2026-05-05 20:15 | 48.00696 | 0.86727 | 31033 ft | 467 kts | 167° |
| 2026-05-05 20:15 | 47.97567 | 0.87807 | 31157 ft | 467 kts | 167° |
| 2026-05-05 20:15 | 47.94366 | 0.88907 | 31284 ft | 467 kts | 167° |
| 2026-05-05 20:15 | 47.91198 | 0.89991 | 31409 ft | 466 kts | 167° |
| 2026-05-05 20:16 | 47.88041 | 0.91073 | 31534 ft | 466 kts | 167° |
| 2026-05-05 20:16 | 47.84881 | 0.92155 | 31659 ft | 465 kts | 167° |
| 2026-05-05 20:16 | 47.81768 | 0.93220 | 31783 ft | 465 kts | 167° |
| 2026-05-05 20:16 | 47.78616 | 0.94296 | 31908 ft | 465 kts | 167° |
| 2026-05-05 20:17 | 47.75468 | 0.95373 | 32032 ft | 464 kts | 167° |
| 2026-05-05 20:17 | 47.69168 | 0.97523 | 32283 ft | 464 kts | 167° |
| 2026-05-05 20:17 | 47.66027 | 0.98591 | 32408 ft | 463 kts | 167° |
| 2026-05-05 20:18 | 47.62884 | 0.99662 | 32533 ft | 463 kts | 167° |
| 2026-05-05 20:18 | 47.59748 | 1.00730 | 32658 ft | 463 kts | 167° |
| 2026-05-05 20:18 | 47.56607 | 1.01796 | 32783 ft | 463 kts | 167° |
| 2026-05-05 20:18 | 47.53470 | 1.02858 | 32908 ft | 462 kts | 167° |
| 2026-05-05 20:19 | 47.50332 | 1.03921 | 33033 ft | 462 kts | 167° |
| 2026-05-05 20:19 | 47.47199 | 1.04983 | 33158 ft | 462 kts | 167° |
| 2026-05-05 20:19 | 47.44058 | 1.05995 | 33283 ft | 462 kts | 171° |
| 2026-05-05 20:19 | 47.40862 | 1.06411 | 33408 ft | 461 kts | 180° |
| 2026-05-05 20:20 | 47.37651 | 1.06335 | 33535 ft | 461 kts | 181° |
| 2026-05-05 20:20 | 47.34448 | 1.06253 | 33660 ft | 461 kts | 181° |
| 2026-05-05 20:20 | 47.31243 | 1.06176 | 33785 ft | 461 kts | 181° |
| 2026-05-05 20:20 | 47.28037 | 1.06103 | 33910 ft | 461 kts | 181° |
| 2026-05-05 20:21 | 47.24823 | 1.06025 | 34035 ft | 461 kts | 181° |
| 2026-05-05 20:21 | 47.21619 | 1.05946 | 34160 ft | 461 kts | 181° |
| 2026-05-05 20:21 | 47.18413 | 1.05867 | 34285 ft | 461 kts | 181° |
| 2026-05-05 20:21 | 47.15205 | 1.05788 | 34410 ft | 461 kts | 181° |
| 2026-05-05 20:22 | 47.12002 | 1.05712 | 34535 ft | 461 kts | 181° |
| 2026-05-05 20:22 | 47.03744 | 1.05528 | 34855 ft | 460 kts | 181° |
| 2026-05-05 20:22 | 46.90879 | 1.05024 | 35041 ft | 466 kts | 182° |
| 2026-05-05 20:23 | 46.64676 | 1.03888 | 35021 ft | 479 kts | 182° |
| 2026-05-05 20:23 | 46.51254 | 1.03569 | 34813 ft | 487 kts | 173° |
| 2026-05-05 20:23 | 46.46332 | 1.05292 | 34709 ft | 489 kts | 162° |
| 2026-05-05 20:24 | 46.39740 | 1.07770 | 34710 ft | 489 kts | 168° |
| 2026-05-05 20:24 | 46.27636 | 1.11269 | 34708 ft | 489 kts | 168° |
| 2026-05-05 20:25 | 46.15540 | 1.15319 | 34710 ft | 489 kts | 167° |
| 2026-05-05 20:25 | 46.08933 | 1.17557 | 34886 ft | 485 kts | 167° |
| 2026-05-05 20:25 | 46.05643 | 1.18649 | 34991 ft | 484 kts | 167° |
| 2026-05-05 20:26 | 46.02363 | 1.19727 | 35011 ft | 484 kts | 167° |
| 2026-05-05 20:26 | 45.95788 | 1.21880 | 35009 ft | 485 kts | 167° |
| 2026-05-05 20:27 | 45.89196 | 1.24029 | 35009 ft | 486 kts | 167° |
| 2026-05-05 20:27 | 45.76953 | 1.28034 | 35009 ft | 487 kts | 167° |
| 2026-05-05 20:28 | 45.63802 | 1.32324 | 35009 ft | 488 kts | 167° |
| 2026-05-05 20:28 | 45.56457 | 1.34708 | 35010 ft | 488 kts | 167° |